createdAt,value
2023-02-12T00:00:07.235Z,50.90
2023-02-12T00:02:34.043Z,63.83
2023-02-12T00:05:00.517Z,67.32
2023-02-12T00:07:31.241Z,65.75
2023-02-12T00:09:57.669Z,54.10
2023-02-12T00:12:24.060Z,51.60
2023-02-12T00:14:50.452Z,45.63
2023-02-12T00:17:16.825Z,51.03
2023-02-12T00:19:43.202Z,44.08
2023-02-12T00:22:09.599Z,52.45
2023-02-12T00:24:35.997Z,62.33
2023-02-12T00:27:02.391Z,56.65
2023-02-12T00:29:28.950Z,58.97
2023-02-12T00:31:55.557Z,52.03
2023-02-12T00:34:21.996Z,54.17
2023-02-12T00:36:48.464Z,55.35
2023-02-12T00:39:14.868Z,48.85
2023-02-12T00:41:41.249Z,50.03
2023-02-12T00:44:07.639Z,48.28
2023-02-12T00:46:34.083Z,46.17
2023-02-12T00:49:00.507Z,54.00
2023-02-12T00:51:26.975Z,54.45
2023-02-12T00:53:53.501Z,51.03
2023-02-12T00:56:19.952Z,52.80
2023-02-12T00:58:46.350Z,53.35
2023-02-12T01:01:12.874Z,57.90
2023-02-12T01:03:39.338Z,56.83
2023-02-12T01:06:06.359Z,47.00
2023-02-12T01:08:32.929Z,55.65
2023-02-12T01:11:02.020Z,47.40
2023-02-12T01:13:30.491Z,59.05
2023-02-12T01:16:08.897Z,52.80
2023-02-12T01:18:37.321Z,50.65
2023-02-12T01:21:13.205Z,59.92
2023-02-12T01:23:40.417Z,47.95
2023-02-12T01:26:07.520Z,53.80
2023-02-12T01:28:33.965Z,51.78
2023-02-12T01:31:00.470Z,51.72
2023-02-12T01:33:26.956Z,46.63
2023-02-12T01:35:53.634Z,49.05
2023-02-12T01:38:20.240Z,52.22
2023-02-12T01:40:46.729Z,52.40
2023-02-12T01:43:13.187Z,54.50
2023-02-12T01:45:50.496Z,57.75
2023-02-12T01:48:18.510Z,53.53
2023-02-12T01:50:47.958Z,50.33
2023-02-12T01:53:20.072Z,49.03
2023-02-12T01:55:48.906Z,60.38
2023-02-12T01:58:16.998Z,52.85
2023-02-12T02:00:43.692Z,49.15
2023-02-12T02:03:10.224Z,54.72
2023-02-12T02:05:45.617Z,56.53
2023-02-12T02:08:13.423Z,44.80
2023-02-12T02:10:39.861Z,47.60
2023-02-12T02:13:25.069Z,52.17
2023-02-12T02:15:57.480Z,47.85
2023-02-12T02:18:32.058Z,48.13
2023-02-12T02:21:23.358Z,56.20
2023-02-12T02:24:18.747Z,48.33
2023-02-12T02:27:10.149Z,47.78
2023-02-12T02:29:51.671Z,44.35
2023-02-12T02:32:28.596Z,51.72
2023-02-12T02:34:54.914Z,43.92
2023-02-12T02:37:31.414Z,45.95
2023-02-12T02:40:16.129Z,47.45
2023-02-12T02:42:57.783Z,56.55
2023-02-12T02:45:44.889Z,47.83
2023-02-12T02:48:18.157Z,51.58
2023-02-12T02:50:49.834Z,44.45
2023-02-12T02:55:56.945Z,49.53
2023-02-12T02:58:28.672Z,52.05
2023-02-12T03:01:00.944Z,41.63
2023-02-12T03:03:34.224Z,47.55
2023-02-12T03:06:26.690Z,45.75
2023-02-12T03:09:00.633Z,54.08
2023-02-12T03:11:30.312Z,48.53
2023-02-12T03:14:07.957Z,51.97
2023-02-12T03:16:39.687Z,53.75
2023-02-12T03:19:16.280Z,56.95
2023-02-12T03:21:58.562Z,65.05
2023-02-12T03:24:44.259Z,58.53
2023-02-12T03:28:02.858Z,57.05
2023-02-12T03:30:57.135Z,54.92
2023-02-12T03:33:52.663Z,53.83
2023-02-12T03:36:53.128Z,54.70
2023-02-12T03:39:31.334Z,50.13
2023-02-12T03:42:16.146Z,44.40
2023-02-12T03:44:54.685Z,49.13
2023-02-12T03:47:31.289Z,44.40
2023-02-12T03:50:28.285Z,49.47
2023-02-12T03:52:55.306Z,42.15
2023-02-12T03:55:21.893Z,50.83
2023-02-12T03:57:56.143Z,43.60
2023-02-12T04:00:24.759Z,49.58
2023-02-12T04:02:52.534Z,48.83
2023-02-12T04:05:22.316Z,52.20
2023-02-12T04:07:50.681Z,47.28
2023-02-12T04:10:18.762Z,48.92
2023-02-12T04:13:06.004Z,48.50
2023-02-12T04:16:05.573Z,46.05
2023-02-12T04:18:42.953Z,46.15
2023-02-12T04:21:34.402Z,51.03
2023-02-12T04:24:44.580Z,44.83
2023-02-12T04:27:19.422Z,44.85
2023-02-12T04:30:06.751Z,39.42
2023-02-12T04:32:41.635Z,45.55
2023-02-12T04:35:08.364Z,42.53
2023-02-12T04:37:34.701Z,45.97
2023-02-12T04:40:06.097Z,39.28
2023-02-12T04:42:41.798Z,45.63
2023-02-12T04:45:11.727Z,43.47
2023-02-12T04:47:38.829Z,50.83
2023-02-12T04:50:06.014Z,49.95
2023-02-12T04:52:32.492Z,43.88
2023-02-12T04:54:58.917Z,45.05
2023-02-12T04:57:25.635Z,37.90
2023-02-12T04:59:52.074Z,54.55
2023-02-12T05:02:18.551Z,52.63
2023-02-12T05:04:44.976Z,47.80
2023-02-12T05:07:12.174Z,40.45
2023-02-12T05:09:38.597Z,43.10
2023-02-12T05:12:05.141Z,43.92
2023-02-12T05:14:31.697Z,47.13
2023-02-12T05:16:58.119Z,47.58
2023-02-12T05:19:30.814Z,45.80
2023-02-12T05:21:57.649Z,45.17
2023-02-12T05:24:24.451Z,41.85
2023-02-12T05:26:51.686Z,46.35
2023-02-12T05:29:18.820Z,51.03
2023-02-12T05:31:46.093Z,46.95
2023-02-12T05:34:13.020Z,41.22
2023-02-12T05:36:43.396Z,48.72
2023-02-12T05:39:17.091Z,47.90
2023-02-12T05:41:43.575Z,37.13
2023-02-12T05:44:12.021Z,39.85
2023-02-12T05:46:39.392Z,48.17
2023-02-12T05:49:05.989Z,47.25
2023-02-12T05:51:33.357Z,44.95
2023-02-12T05:54:03.690Z,45.05
2023-02-12T05:56:38.245Z,46.53
2023-02-12T05:59:08.830Z,48.00
2023-02-12T06:01:38.902Z,48.20
2023-02-12T06:04:07.883Z,39.95
2023-02-12T06:06:35.222Z,48.05
2023-02-12T06:09:01.905Z,43.25
2023-02-12T06:11:28.678Z,37.72
2023-02-12T06:13:55.096Z,50.08
2023-02-12T06:16:27.679Z,44.53
2023-02-12T06:18:56.233Z,48.53
2023-02-12T06:21:24.688Z,47.25
2023-02-12T06:23:52.197Z,40.83
2023-02-12T06:26:19.440Z,51.13
2023-02-12T06:28:46.046Z,50.88
2023-02-12T06:31:21.600Z,49.33
2023-02-12T06:33:48.401Z,42.90
2023-02-12T06:36:15.406Z,41.13
2023-02-12T06:38:42.179Z,43.67
2023-02-12T06:41:08.688Z,45.45
2023-02-12T06:43:35.741Z,50.25
2023-02-12T06:46:04.043Z,54.20
2023-02-12T06:48:31.055Z,56.38
2023-02-12T06:51:04.170Z,49.08
2023-02-12T06:53:30.561Z,47.55
2023-02-12T06:55:57.278Z,56.85
2023-02-12T06:58:23.861Z,52.53
2023-02-12T07:00:50.326Z,56.67
2023-02-12T07:03:16.789Z,55.35
2023-02-12T07:05:43.206Z,52.20
2023-02-12T07:08:09.783Z,52.63
2023-02-12T07:10:36.189Z,52.03
2023-02-12T07:13:04.742Z,45.35
2023-02-12T07:15:31.619Z,44.22
2023-02-12T07:17:58.042Z,42.65
2023-02-12T07:20:24.440Z,51.55
2023-02-12T07:22:50.878Z,46.70
2023-02-12T07:25:17.473Z,48.97
2023-02-12T07:27:44.082Z,45.58
2023-02-12T07:30:10.874Z,44.50
2023-02-12T07:32:37.282Z,45.03
2023-02-12T07:35:03.832Z,46.22
2023-02-12T07:37:30.281Z,48.38
2023-02-12T07:39:56.681Z,50.10
2023-02-12T07:42:23.276Z,47.28
2023-02-12T07:44:50.385Z,54.90
2023-02-12T07:47:17.179Z,53.42
2023-02-12T07:49:43.706Z,42.80
2023-02-12T07:52:13.219Z,45.35
2023-02-12T07:54:39.858Z,51.95
2023-02-12T07:57:06.317Z,48.38
2023-02-12T07:59:32.789Z,43.85
2023-02-12T08:02:00.856Z,54.58
2023-02-12T08:04:27.452Z,55.97
2023-02-12T08:06:55.710Z,51.30
2023-02-12T08:09:25.316Z,55.80
2023-02-12T08:11:52.014Z,51.10
2023-02-12T08:14:20.877Z,41.35
2023-02-12T08:16:48.958Z,52.95
2023-02-12T08:19:21.633Z,53.25
2023-02-12T08:21:51.266Z,43.85
2023-02-12T08:24:18.113Z,47.00
2023-02-12T08:26:45.065Z,53.90
2023-02-12T08:29:15.021Z,48.97
2023-02-12T08:31:44.082Z,54.40
2023-02-12T08:34:23.489Z,60.85
2023-02-12T08:36:51.837Z,50.03
2023-02-12T08:39:18.918Z,52.50
2023-02-12T08:41:46.576Z,54.50
2023-02-12T08:44:13.698Z,56.88
2023-02-12T08:46:44.368Z,54.20
2023-02-12T08:49:16.744Z,55.20
2023-02-12T08:51:48.522Z,68.70
2023-02-12T08:54:17.539Z,56.80
2023-02-12T08:56:45.334Z,58.67
2023-02-12T08:59:14.178Z,54.35
2023-02-12T09:01:44.755Z,56.97
2023-02-12T09:04:17.941Z,56.58
2023-02-12T09:06:45.812Z,63.35
2023-02-12T09:09:15.356Z,57.65
2023-02-12T09:11:42.179Z,54.25
2023-02-12T09:14:12.295Z,60.53
2023-02-12T09:16:40.337Z,53.10
2023-02-12T09:19:08.211Z,58.85
2023-02-12T09:21:35.160Z,53.88
2023-02-12T09:24:03.568Z,55.67
2023-02-12T09:26:31.023Z,62.70
2023-02-12T09:28:57.834Z,46.00
2023-02-12T09:31:27.135Z,58.75
2023-02-12T09:34:05.126Z,52.97
2023-02-12T09:36:32.744Z,54.90
2023-02-12T09:39:08.459Z,52.05
2023-02-12T09:41:55.117Z,49.72
2023-02-12T09:44:39.876Z,57.35
2023-02-12T09:47:24.076Z,52.28
2023-02-12T09:50:27.450Z,53.72
2023-02-12T09:52:56.956Z,53.38
2023-02-12T09:55:30.408Z,49.20
2023-02-12T09:57:57.075Z,50.65
2023-02-12T10:00:31.994Z,49.70
2023-02-12T10:03:05.532Z,51.95
2023-02-12T10:05:39.501Z,49.50
2023-02-12T10:08:32.036Z,51.35
2023-02-12T10:11:20.383Z,61.58
2023-02-12T10:14:05.669Z,49.08
2023-02-12T10:16:32.070Z,52.55
2023-02-12T10:19:04.441Z,48.83
2023-02-12T10:21:44.026Z,50.30
2023-02-12T10:24:30.053Z,50.05
2023-02-12T10:27:02.505Z,48.35
2023-02-12T10:29:38.216Z,46.30
2023-02-12T10:32:11.822Z,53.28
2023-02-12T10:34:41.359Z,47.70
2023-02-12T10:37:16.895Z,50.28
2023-02-12T10:39:49.541Z,51.15
2023-02-12T10:42:26.733Z,48.88
2023-02-12T10:44:53.171Z,46.85
2023-02-12T10:47:24.078Z,56.05
2023-02-12T10:50:02.121Z,56.67
2023-02-12T10:52:45.029Z,54.65
2023-02-12T10:55:28.054Z,49.55
2023-02-12T10:57:55.761Z,46.45
2023-02-12T11:00:43.541Z,44.72
2023-02-12T11:03:13.093Z,51.30
2023-02-12T11:05:42.926Z,49.47
2023-02-12T11:08:38.751Z,47.28
2023-02-12T11:11:19.647Z,46.88
2023-02-12T11:14:17.486Z,44.13
2023-02-12T11:16:52.060Z,49.85
2023-02-12T11:19:27.715Z,48.15
2023-02-12T11:22:07.851Z,48.00
2023-02-12T11:24:36.962Z,43.08
2023-02-12T11:27:12.683Z,45.85
2023-02-12T11:29:43.208Z,44.72
2023-02-12T11:32:17.488Z,41.77
2023-02-12T11:34:43.974Z,41.75
2023-02-12T11:37:19.922Z,36.63
2023-02-12T11:39:48.781Z,35.50
2023-02-12T11:42:23.209Z,40.03
2023-02-12T11:44:59.284Z,37.33
2023-02-12T11:47:31.813Z,40.40
2023-02-12T11:50:33.236Z,38.22
2023-02-12T11:53:04.603Z,35.60
2023-02-12T11:55:35.225Z,38.22
2023-02-12T11:58:15.390Z,37.38
2023-02-12T12:00:52.179Z,37.53
2023-02-12T12:03:28.755Z,41.08
2023-02-12T12:06:17.085Z,31.48
2023-02-12T12:08:48.304Z,40.38
2023-02-12T12:11:25.053Z,37.28
2023-02-12T12:14:03.748Z,34.25
2023-02-12T12:17:06.368Z,36.35
2023-02-12T12:19:54.786Z,42.20
2023-02-12T12:22:31.152Z,35.70
2023-02-12T12:25:09.961Z,36.70
2023-02-12T12:28:02.081Z,45.20
2023-02-12T12:30:37.832Z,36.50
2023-02-12T12:33:13.131Z,46.22
2023-02-12T12:35:50.497Z,37.78
2023-02-12T12:38:52.922Z,36.10
2023-02-12T12:41:48.047Z,39.97
2023-02-12T12:44:35.349Z,36.05
2023-02-12T12:47:32.459Z,33.92
2023-02-12T12:50:10.994Z,37.10
2023-02-12T12:52:40.437Z,34.58
2023-02-12T12:55:44.253Z,37.22
2023-02-12T12:58:19.799Z,36.80
2023-02-12T13:01:26.223Z,32.17
2023-02-12T13:04:22.542Z,37.90
2023-02-12T13:07:07.914Z,34.80
2023-02-12T13:09:46.485Z,36.50
2023-02-12T13:12:33.860Z,36.78
2023-02-12T13:15:38.964Z,36.13
2023-02-12T13:18:20.398Z,35.20
2023-02-12T13:23:51.119Z,32.35
2023-02-12T13:26:37.490Z,31.73
2023-02-12T13:29:16.567Z,33.38
2023-02-12T13:31:50.138Z,33.70
2023-02-12T13:34:18.625Z,35.47
2023-02-12T13:36:46.115Z,31.83
2023-02-12T13:39:12.556Z,39.22
2023-02-12T13:41:45.524Z,27.25
2023-02-12T13:44:37.630Z,30.92
2023-02-12T13:47:22.794Z,30.23
2023-02-12T13:49:52.057Z,31.25
2023-02-12T13:52:40.642Z,33.35
2023-02-12T13:55:28.538Z,29.60
2023-02-12T13:58:32.221Z,36.10
2023-02-12T14:01:02.653Z,36.85
2023-02-12T14:03:31.058Z,30.27
2023-02-12T14:06:17.888Z,37.63
2023-02-12T14:08:48.361Z,33.65
2023-02-12T14:11:19.336Z,35.87
2023-02-12T14:13:52.609Z,41.05
2023-02-12T14:16:40.601Z,37.53
2023-02-12T14:19:44.461Z,31.67
2023-02-12T14:22:32.797Z,35.72
2023-02-12T14:25:02.444Z,30.35
2023-02-12T14:27:28.987Z,39.22
2023-02-12T14:30:01.174Z,33.15
2023-02-12T14:32:58.208Z,35.53
2023-02-12T14:35:36.815Z,38.97
2023-02-12T14:38:47.785Z,44.95
2023-02-12T14:41:38.948Z,33.50
2023-02-12T14:44:17.769Z,33.92
2023-02-12T14:46:51.861Z,34.47
2023-02-12T14:49:44.398Z,36.38
2023-02-12T14:52:13.747Z,41.30
2023-02-12T14:54:42.498Z,37.28
2023-02-12T14:57:21.887Z,41.33
2023-02-12T14:59:49.929Z,38.22
2023-02-12T15:02:26.842Z,33.78
2023-02-12T15:04:58.294Z,24.42
2023-02-12T15:07:33.069Z,26.02
2023-02-12T15:10:10.177Z,27.63
2023-02-12T15:12:46.089Z,28.85
2023-02-12T15:15:12.764Z,28.90
2023-02-12T15:17:41.962Z,32.83
2023-02-12T15:20:21.016Z,29.63
2023-02-12T15:22:47.481Z,31.15
2023-02-12T15:25:25.765Z,28.13
2023-02-12T15:28:00.571Z,30.92
2023-02-12T15:30:30.446Z,29.30
2023-02-12T15:32:59.637Z,30.63
2023-02-12T15:35:32.818Z,31.73
2023-02-12T15:38:01.207Z,35.85
2023-02-12T15:40:29.641Z,37.85
2023-02-12T15:43:04.480Z,30.40
2023-02-12T15:45:36.062Z,33.47
2023-02-12T15:48:13.083Z,33.60
2023-02-12T15:51:14.204Z,35.38
2023-02-12T15:53:41.823Z,36.35
2023-02-12T15:56:18.718Z,40.17
2023-02-12T15:58:57.568Z,40.17
2023-02-12T16:01:30.375Z,38.58
2023-02-12T16:03:59.115Z,45.10
2023-02-12T16:06:28.006Z,38.75
2023-02-12T16:08:59.323Z,47.13
2023-02-12T16:11:27.182Z,41.20
2023-02-12T16:14:00.948Z,40.67
2023-02-12T16:16:40.671Z,44.75
2023-02-12T16:19:18.415Z,44.67
2023-02-12T16:21:48.184Z,41.78
2023-02-12T16:24:37.484Z,39.15
2023-02-12T16:30:48.192Z,43.55
2023-02-12T16:33:34.174Z,37.43
2023-02-12T16:36:07.579Z,52.35
2023-02-12T16:38:40.254Z,43.75
2023-02-12T16:41:18.759Z,41.05
2023-02-12T16:43:46.074Z,38.92
2023-02-12T16:46:13.802Z,43.88
2023-02-12T16:48:43.337Z,38.83
2023-02-12T16:51:26.384Z,41.88
2023-02-12T16:53:57.398Z,49.35
2023-02-12T16:56:36.081Z,47.20
2023-02-12T16:59:02.825Z,45.25
2023-02-12T17:01:33.345Z,43.50
2023-02-12T17:04:02.309Z,43.13
2023-02-12T17:06:31.154Z,38.42
2023-02-12T17:08:58.307Z,40.72
2023-02-12T17:11:26.408Z,47.20
2023-02-12T17:13:54.688Z,46.40
2023-02-12T17:16:31.092Z,43.30
2023-02-12T17:18:58.945Z,42.63
2023-02-12T17:21:31.581Z,45.97
2023-02-12T17:23:58.399Z,53.38
2023-02-12T17:26:25.431Z,42.85
2023-02-12T17:28:51.928Z,48.45
2023-02-12T17:31:20.558Z,45.80
2023-02-12T17:33:47.075Z,43.70
2023-02-12T17:36:13.560Z,49.42
2023-02-12T17:38:39.985Z,46.42
2023-02-12T17:41:10.894Z,39.95
2023-02-12T17:43:37.432Z,47.03
2023-02-12T17:46:18.490Z,40.70
2023-02-12T17:48:45.049Z,49.78
2023-02-12T17:51:13.327Z,44.05
2023-02-12T17:53:40.838Z,48.00
2023-02-12T17:56:16.463Z,41.90
2023-02-12T17:58:43.927Z,52.60
2023-02-12T18:01:13.375Z,52.95
2023-02-12T18:03:39.885Z,50.65
2023-02-12T18:06:07.329Z,51.67
2023-02-12T18:08:34.054Z,47.55
2023-02-12T18:11:06.167Z,51.78
2023-02-12T18:13:32.912Z,55.95
2023-02-12T18:15:59.389Z,67.55
2023-02-12T18:18:25.879Z,67.20
2023-02-12T18:20:52.432Z,65.30
2023-02-12T18:23:19.100Z,58.85
2023-02-12T18:25:45.531Z,68.82
2023-02-12T18:28:12.760Z,60.33
2023-02-12T18:30:42.719Z,61.65
2023-02-12T18:33:11.149Z,51.88
2023-02-12T18:35:37.617Z,64.95
2023-02-12T18:38:04.078Z,67.93
2023-02-12T18:40:30.585Z,68.20
2023-02-12T18:42:57.032Z,73.10
2023-02-12T18:45:23.716Z,71.20
2023-02-12T18:47:50.144Z,83.78
2023-02-12T18:50:16.824Z,83.68
2023-02-12T18:52:43.221Z,63.10
2023-02-12T18:55:09.656Z,58.50
2023-02-12T18:57:36.109Z,60.10
2023-02-12T19:00:04.339Z,61.85
2023-02-12T19:02:30.851Z,58.15
2023-02-12T19:04:57.359Z,52.95
2023-02-12T19:07:23.855Z,58.78
2023-02-12T19:09:50.697Z,56.75
2023-02-12T19:12:17.175Z,60.22
2023-02-12T19:14:43.635Z,44.83
2023-02-12T19:17:10.104Z,53.97
2023-02-12T19:19:36.681Z,68.40
2023-02-12T19:22:03.178Z,60.85
2023-02-12T19:24:44.383Z,63.53
2023-02-12T19:27:12.514Z,58.45
2023-02-12T19:29:38.943Z,67.65
2023-02-12T19:32:05.479Z,62.45
2023-02-12T19:34:32.048Z,62.38
2023-02-12T19:36:58.540Z,67.85
2023-02-12T19:39:25.175Z,67.47
2023-02-12T19:41:52.093Z,66.43
2023-02-12T19:44:23.214Z,58.05
2023-02-12T19:46:50.074Z,62.65
2023-02-12T19:49:19.322Z,62.22
2023-02-12T19:51:46.501Z,62.88
2023-02-12T19:54:15.078Z,66.88
2023-02-12T19:56:42.160Z,60.58
2023-02-12T19:59:08.940Z,58.50
2023-02-12T20:01:35.630Z,67.22
2023-02-12T20:04:03.326Z,77.03
2023-02-12T20:06:33.557Z,65.35
2023-02-12T20:09:00.194Z,60.53
2023-02-12T20:11:31.640Z,53.53
2023-02-12T20:13:58.322Z,47.17
2023-02-12T20:16:31.251Z,57.20
2023-02-12T20:19:04.408Z,51.92
2023-02-12T20:21:30.992Z,58.15
2023-02-12T20:23:58.490Z,52.97
2023-02-12T20:26:25.786Z,50.70
2023-02-12T20:28:52.506Z,56.67
2023-02-12T20:31:22.399Z,54.50
2023-02-12T20:33:53.063Z,56.03
2023-02-12T20:36:19.485Z,55.87
2023-02-12T20:38:50.110Z,53.35
2023-02-12T20:41:16.572Z,53.90
2023-02-12T20:43:42.965Z,45.95
2023-02-12T20:46:14.535Z,50.03
2023-02-12T20:48:42.073Z,54.10
2023-02-12T20:51:11.580Z,50.28
2023-02-12T20:53:38.766Z,55.45
2023-02-12T20:56:08.057Z,48.08
2023-02-12T20:58:34.564Z,50.00
2023-02-12T21:01:09.358Z,46.42
2023-02-12T21:03:36.639Z,42.28
2023-02-12T21:06:03.995Z,48.13
2023-02-12T21:08:31.542Z,49.88
2023-02-12T21:11:14.457Z,49.17
2023-02-12T21:13:58.567Z,45.22
2023-02-12T21:16:32.140Z,48.08
2023-02-12T21:18:58.805Z,48.42
2023-02-12T21:21:30.394Z,48.55
2023-02-12T21:26:26.453Z,45.30
2023-02-12T21:28:55.069Z,48.22
2023-02-12T21:31:42.512Z,49.55
2023-02-12T21:34:13.302Z,51.35
2023-02-12T21:36:41.979Z,48.25
2023-02-12T21:39:11.550Z,47.17
2023-02-12T21:41:39.692Z,52.40
2023-02-12T21:44:11.910Z,51.33
2023-02-12T21:46:38.651Z,54.72
2023-02-12T21:49:05.288Z,56.83
2023-02-12T21:51:34.446Z,59.53
2023-02-12T21:54:03.703Z,61.00
2023-02-12T21:56:30.649Z,58.20
2023-02-12T21:59:05.010Z,61.20
2023-02-12T22:01:34.563Z,57.22
2023-02-12T22:04:02.764Z,57.67
2023-02-12T22:06:29.612Z,56.50
2023-02-12T22:09:01.123Z,56.88
2023-02-12T22:13:57.309Z,58.38
2023-02-12T22:16:26.050Z,58.22
2023-02-12T22:18:59.372Z,62.83
2023-02-12T22:21:29.886Z,61.13
2023-02-12T22:23:57.276Z,56.35
2023-02-12T22:26:26.745Z,62.60
2023-02-12T22:28:59.321Z,51.22
2023-02-12T22:31:31.407Z,65.22
2023-02-12T22:34:00.957Z,56.17
2023-02-12T22:36:29.445Z,60.83
2023-02-12T22:38:59.291Z,50.95
2023-02-12T22:41:26.435Z,58.03
2023-02-12T22:43:52.857Z,56.15
2023-02-12T22:46:19.746Z,55.17
2023-02-12T22:48:46.763Z,57.72
2023-02-12T22:51:26.737Z,61.30
2023-02-12T22:53:54.631Z,61.33
2023-02-12T22:56:21.561Z,52.42
2023-02-12T22:58:48.587Z,57.78
2023-02-12T23:01:18.046Z,66.60
2023-02-12T23:03:45.904Z,67.82
2023-02-12T23:06:15.662Z,68.60
2023-02-12T23:08:43.072Z,67.93
2023-02-12T23:11:10.726Z,64.07
2023-02-12T23:13:37.498Z,82.45
2023-02-12T23:16:04.500Z,56.20
2023-02-12T23:18:31.848Z,58.83
2023-02-12T23:20:58.692Z,53.67
2023-02-12T23:23:25.483Z,53.13
2023-02-12T23:25:53.870Z,60.17
2023-02-12T23:28:21.408Z,50.35
2023-02-12T23:30:49.261Z,50.33
2023-02-12T23:33:15.980Z,52.40
2023-02-12T23:35:42.697Z,50.55
2023-02-12T23:38:09.087Z,54.58
2023-02-12T23:40:35.518Z,54.15
2023-02-12T23:43:02.007Z,51.35
2023-02-12T23:45:28.719Z,52.75
2023-02-12T23:47:55.188Z,47.75
2023-02-12T23:50:22.041Z,42.85
2023-02-12T23:52:48.482Z,57.33
2023-02-12T23:55:15.369Z,56.53
2023-02-12T23:57:41.857Z,52.47
